Tucson, AZ (85756)

2:50 PM MST on February 07, 2016 (GMT -0700)
Rodeo | | Change Station
CLOSE
Current Station
Personal Weather Station
Location: Tucson, AZ
Elevation: 2480 ft
Nearby Weather Stations

Elev 2480 ft 32.17 °N, 110.96 °W | Updated 42 minutes ago

Clear
Clear
72.0 °F
Feels Like 73 °F
N
2.7
Wind Variable Wind from NNE

Today
High -- | Low -- °F
--% Chance of Precip.
Yesterday
High -- | Low -- °F
Precip. -- in
Pressure 30.09 in
Visibility 10.0 miles
Clouds Clear
Heat Index 73 °F
Dew Point 18 °F
Humidity 13%
Rainfall 0.00 in
Snow Depth Not available.
7:13 AM 6:02 PM
Waning Crescent, 1% visible
METAR KTUS 072053Z 35007KT 10SM CLR 22/M12 A3016 RMK AO2 SLP187 T02171117 58020
Pressure 30.09 in
Visibility 10.0 miles
Clouds Clear
Heat Index 73 °F
Dew Point 18 °F
Humidity 13%
Rainfall 0.00 in
Snow Depth Not available.
7:13 AM 6:02 PM
Waning Crescent, 1% visible
METAR KTUS 072053Z 35007KT 10SM CLR 22/M12 A3016 RMK AO2 SLP187 T02171117 58020

10-Day Weather Forecast

Almanac

Astronomy

Feb. 07, 2016 Rise Set
Actual Time
Civil Twilight
Nautical Twilight
Astronomical Twilight
Moon
Length of Visible Light
Length of Day
Tomorrow will be .
, % of the Moon is Illuminated

Today's Extremes

State Highs State Lows

Community

WunderPhotos

Upload Photos

1,891,304 photos uploaded!

WunderBlog® & News

Nearby

Air Quality

  Air Quality AQ Index Pollutant
Not available.

Snow Depth

Station Depth Elevation

Earthquake Activity

City Distance Mag. Time & Date
Minimum magnitude displayed is 2.5.

Coastal Water Temperatures

Place Temperature

Stations

Nearby Weather Stations

Station Location Temp. Windchill Dew Point Humidity Wind Precip. Elev Updated Type
                   

Watches & Warnings

There are currently no watches in effect.